sensor_id;sensor_type;location;lat;lon;timestamp;P1;durP1;ratioP1;P2;durP2;ratioP2
35276;SDS011;21401;50.878;8.050;2022-10-31T00:00:44;18.05;;;8.32;;
35276;SDS011;21401;50.878;8.050;2022-10-31T00:03:11;20.92;;;8.60;;
35276;SDS011;21401;50.878;8.050;2022-10-31T00:05:40;21.75;;;8.35;;
35276;SDS011;21401;50.878;8.050;2022-10-31T00:08:07;17.08;;;8.40;;
35276;SDS011;21401;50.878;8.050;2022-10-31T00:10:36;19.15;;;7.97;;
35276;SDS011;21401;50.878;8.050;2022-10-31T00:13:02;16.88;;;7.50;;
35276;SDS011;21401;50.878;8.050;2022-10-31T00:15:28;14.23;;;8.45;;
35276;SDS011;21401;50.878;8.050;2022-10-31T00:17:55;18.60;;;8.00;;
35276;SDS011;21401;50.878;8.050;2022-10-31T00:20:20;19.20;;;8.45;;
35276;SDS011;21401;50.878;8.050;2022-10-31T00:22:46;17.35;;;7.88;;
35276;SDS011;21401;50.878;8.050;2022-10-31T00:25:11;12.43;;;8.52;;
35276;SDS011;21401;50.878;8.050;2022-10-31T00:27:41;15.25;;;7.57;;
35276;SDS011;21401;50.878;8.050;2022-10-31T00:30:13;16.15;;;7.15;;
35276;SDS011;21401;50.878;8.050;2022-10-31T00:33:02;14.73;;;7.50;;
35276;SDS011;21401;50.878;8.050;2022-10-31T00:35:31;21.08;;;8.73;;
35276;SDS011;21401;50.878;8.050;2022-10-31T00:37:57;17.38;;;8.55;;
35276;SDS011;21401;50.878;8.050;2022-10-31T00:40:23;18.63;;;10.05;;
35276;SDS011;21401;50.878;8.050;2022-10-31T00:42:49;19.63;;;8.32;;
35276;SDS011;21401;50.878;8.050;2022-10-31T00:45:15;16.33;;;8.10;;
35276;SDS011;21401;50.878;8.050;2022-10-31T00:47:41;15.70;;;7.15;;
35276;SDS011;21401;50.878;8.050;2022-10-31T00:50:07;15.60;;;6.40;;
35276;SDS011;21401;50.878;8.050;2022-10-31T00:52:33;22.38;;;7.03;;
35276;SDS011;21401;50.878;8.050;2022-10-31T00:54:59;21.83;;;7.85;;
35276;SDS011;21401;50.878;8.050;2022-10-31T00:57:26;12.00;;;6.93;;
35276;SDS011;21401;50.878;8.050;2022-10-31T00:59:52;15.95;;;8.15;;
35276;SDS011;21401;50.878;8.050;2022-10-31T01:02:18;9.40;;;6.53;;
35276;SDS011;21401;50.878;8.050;2022-10-31T01:04:44;19.23;;;7.65;;
35276;SDS011;21401;50.878;8.050;2022-10-31T01:07:12;23.42;;;6.85;;
35276;SDS011;21401;50.878;8.050;2022-10-31T01:09:38;21.17;;;7.93;;
35276;SDS011;21401;50.878;8.050;2022-10-31T01:12:05;14.55;;;6.47;;
35276;SDS011;21401;50.878;8.050;2022-10-31T01:14:31;14.38;;;7.45;;
35276;SDS011;21401;50.878;8.050;2022-10-31T01:16:57;14.85;;;6.90;;
35276;SDS011;21401;50.878;8.050;2022-10-31T01:19:22;24.50;;;7.75;;
35276;SDS011;21401;50.878;8.050;2022-10-31T01:21:48;16.52;;;7.00;;
35276;SDS011;21401;50.878;8.050;2022-10-31T01:24:14;32.28;;;9.13;;
35276;SDS011;21401;50.878;8.050;2022-10-31T01:26:39;19.27;;;8.90;;
35276;SDS011;21401;50.878;8.050;2022-10-31T01:29:06;19.13;;;8.13;;
35276;SDS011;21401;50.878;8.050;2022-10-31T01:31:34;21.38;;;8.50;;
35276;SDS011;21401;50.878;8.050;2022-10-31T01:34:02;26.95;;;8.75;;
35276;SDS011;21401;50.878;8.050;2022-10-31T01:38:58;15.77;;;8.57;;
35276;SDS011;21401;50.878;8.050;2022-10-31T01:41:29;22.42;;;7.78;;
35276;SDS011;21401;50.878;8.050;2022-10-31T01:44:03;19.55;;;7.45;;
35276;SDS011;21401;50.878;8.050;2022-10-31T01:47:11;14.88;;;7.10;;
35276;SDS011;21401;50.878;8.050;2022-10-31T01:49:45;15.63;;;6.82;;
35276;SDS011;21401;50.878;8.050;2022-10-31T01:55:03;19.85;;;6.72;;
35276;SDS011;21401;50.878;8.050;2022-10-31T01:57:46;15.27;;;7.53;;
35276;SDS011;21401;50.878;8.050;2022-10-31T02:00:16;23.45;;;6.90;;
35276;SDS011;21401;50.878;8.050;2022-10-31T02:02:42;18.55;;;6.85;;
35276;SDS011;21401;50.878;8.050;2022-10-31T02:05:10;12.88;;;7.10;;
35276;SDS011;21401;50.878;8.050;2022-10-31T02:07:48;14.23;;;7.05;;
35276;SDS011;21401;50.878;8.050;2022-10-31T02:10:21;16.85;;;7.75;;
35276;SDS011;21401;50.878;8.050;2022-10-31T02:12:53;14.70;;;6.63;;
35276;SDS011;21401;50.878;8.050;2022-10-31T02:15:22;15.93;;;7.00;;
35276;SDS011;21401;50.878;8.050;2022-10-31T02:17:54;13.35;;;7.18;;
35276;SDS011;21401;50.878;8.050;2022-10-31T02:20:20;18.08;;;6.88;;
35276;SDS011;21401;50.878;8.050;2022-10-31T02:31:33;16.10;;;6.13;;
35276;SDS011;21401;50.878;8.050;2022-10-31T02:37:24;16.63;;;6.90;;
35276;SDS011;21401;50.878;8.050;2022-10-31T02:40:04;19.85;;;9.27;;
35276;SDS011;21401;50.878;8.050;2022-10-31T02:42:39;11.98;;;5.45;;
35276;SDS011;21401;50.878;8.050;2022-10-31T02:45:22;16.92;;;6.72;;
35276;SDS011;21401;50.878;8.050;2022-10-31T02:48:00;14.70;;;6.60;;
35276;SDS011;21401;50.878;8.050;2022-10-31T02:50:34;22.55;;;8.63;;
35276;SDS011;21401;50.878;8.050;2022-10-31T02:53:04;13.45;;;5.85;;
35276;SDS011;21401;50.878;8.050;2022-10-31T02:58:09;12.57;;;5.60;;
35276;SDS011;21401;50.878;8.050;2022-10-31T03:00:45;14.17;;;6.30;;
35276;SDS011;21401;50.878;8.050;2022-10-31T03:03:29;16.88;;;6.97;;
35276;SDS011;21401;50.878;8.050;2022-10-31T03:08:43;14.20;;;6.75;;
35276;SDS011;21401;50.878;8.050;2022-10-31T03:11:31;18.17;;;7.05;;
35276;SDS011;21401;50.878;8.050;2022-10-31T03:14:06;13.68;;;7.78;;
35276;SDS011;21401;50.878;8.050;2022-10-31T03:16:44;22.60;;;7.57;;
35276;SDS011;21401;50.878;8.050;2022-10-31T03:19:13;18.02;;;6.78;;
35276;SDS011;21401;50.878;8.050;2022-10-31T03:21:46;16.38;;;6.63;;
35276;SDS011;21401;50.878;8.050;2022-10-31T03:24:17;17.80;;;7.80;;
35276;SDS011;21401;50.878;8.050;2022-10-31T03:27:01;16.33;;;7.38;;
35276;SDS011;21401;50.878;8.050;2022-10-31T03:29:30;14.10;;;6.57;;
35276;SDS011;21401;50.878;8.050;2022-10-31T03:32:02;14.65;;;6.72;;
35276;SDS011;21401;50.878;8.050;2022-10-31T03:34:34;11.85;;;7.15;;
35276;SDS011;21401;50.878;8.050;2022-10-31T03:37:06;16.77;;;6.88;;
35276;SDS011;21401;50.878;8.050;2022-10-31T03:39:35;17.88;;;6.90;;
35276;SDS011;21401;50.878;8.050;2022-10-31T03:42:11;16.08;;;6.93;;
35276;SDS011;21401;50.878;8.050;2022-10-31T03:44:41;13.75;;;6.68;;
35276;SDS011;21401;50.878;8.050;2022-10-31T03:47:10;18.48;;;6.50;;
35276;SDS011;21401;50.878;8.050;2022-10-31T03:49:54;16.30;;;6.50;;
35276;SDS011;21401;50.878;8.050;2022-10-31T03:55:48;15.52;;;6.72;;
35276;SDS011;21401;50.878;8.050;2022-10-31T04:00:33;17.48;;;6.82;;
35276;SDS011;21401;50.878;8.050;2022-10-31T04:03:22;21.83;;;6.90;;
35276;SDS011;21401;50.878;8.050;2022-10-31T04:05:53;16.88;;;7.97;;
35276;SDS011;21401;50.878;8.050;2022-10-31T04:08:31;19.85;;;7.55;;
35276;SDS011;21401;50.878;8.050;2022-10-31T04:11:03;21.13;;;7.97;;
35276;SDS011;21401;50.878;8.050;2022-10-31T04:13:31;26.00;;;7.35;;
35276;SDS011;21401;50.878;8.050;2022-10-31T04:16:02;15.90;;;6.80;;
35276;SDS011;21401;50.878;8.050;2022-10-31T04:18:29;17.27;;;6.50;;
35276;SDS011;21401;50.878;8.050;2022-10-31T04:20:59;15.00;;;6.28;;
35276;SDS011;21401;50.878;8.050;2022-10-31T04:23:26;10.77;;;6.90;;
35276;SDS011;21401;50.878;8.050;2022-10-31T04:25:53;16.23;;;7.93;;
35276;SDS011;21401;50.878;8.050;2022-10-31T04:28:19;18.08;;;6.97;;
35276;SDS011;21401;50.878;8.050;2022-10-31T04:30:51;21.20;;;7.18;;
35276;SDS011;21401;50.878;8.050;2022-10-31T04:33:20;14.57;;;7.05;;
35276;SDS011;21401;50.878;8.050;2022-10-31T04:35:46;20.77;;;7.10;;
35276;SDS011;21401;50.878;8.050;2022-10-31T04:38:12;13.93;;;7.07;;
35276;SDS011;21401;50.878;8.050;2022-10-31T04:40:38;13.02;;;6.38;;
35276;SDS011;21401;50.878;8.050;2022-10-31T04:43:04;13.82;;;6.43;;
35276;SDS011;21401;50.878;8.050;2022-10-31T04:45:29;13.20;;;7.18;;
35276;SDS011;21401;50.878;8.050;2022-10-31T04:47:55;13.85;;;6.07;;
35276;SDS011;21401;50.878;8.050;2022-10-31T04:50:20;18.77;;;7.25;;
35276;SDS011;21401;50.878;8.050;2022-10-31T04:52:46;12.98;;;6.57;;
35276;SDS011;21401;50.878;8.050;2022-10-31T04:55:12;18.85;;;6.70;;
35276;SDS011;21401;50.878;8.050;2022-10-31T05:00:09;16.20;;;6.97;;
35276;SDS011;21401;50.878;8.050;2022-10-31T05:02:42;14.50;;;6.40;;
35276;SDS011;21401;50.878;8.050;2022-10-31T05:05:12;17.45;;;7.47;;
35276;SDS011;21401;50.878;8.050;2022-10-31T05:07:39;16.95;;;7.57;;
35276;SDS011;21401;50.878;8.050;2022-10-31T05:10:11;21.30;;;7.82;;
35276;SDS011;21401;50.878;8.050;2022-10-31T05:12:44;15.00;;;7.68;;
35276;SDS011;21401;50.878;8.050;2022-10-31T05:15:15;19.60;;;8.07;;
35276;SDS011;21401;50.878;8.050;2022-10-31T05:17:42;13.07;;;6.47;;
35276;SDS011;21401;50.878;8.050;2022-10-31T05:20:08;22.73;;;8.52;;
35276;SDS011;21401;50.878;8.050;2022-10-31T05:22:35;12.95;;;7.35;;
35276;SDS011;21401;50.878;8.050;2022-10-31T05:25:01;11.85;;;6.10;;
35276;SDS011;21401;50.878;8.050;2022-10-31T05:27:27;29.23;;;8.00;;
35276;SDS011;21401;50.878;8.050;2022-10-31T05:29:53;16.90;;;6.88;;
35276;SDS011;21401;50.878;8.050;2022-10-31T05:32:19;13.25;;;6.40;;
35276;SDS011;21401;50.878;8.050;2022-10-31T05:34:44;11.85;;;6.80;;
35276;SDS011;21401;50.878;8.050;2022-10-31T05:37:10;17.75;;;7.13;;
35276;SDS011;21401;50.878;8.050;2022-10-31T05:39:36;12.57;;;6.45;;
35276;SDS011;21401;50.878;8.050;2022-10-31T05:42:02;12.40;;;6.97;;
35276;SDS011;21401;50.878;8.050;2022-10-31T05:44:28;13.32;;;6.40;;
35276;SDS011;21401;50.878;8.050;2022-10-31T05:46:53;14.27;;;7.15;;
35276;SDS011;21401;50.878;8.050;2022-10-31T05:49:19;14.80;;;7.03;;
35276;SDS011;21401;50.878;8.050;2022-10-31T05:51:47;20.58;;;7.22;;
35276;SDS011;21401;50.878;8.050;2022-10-31T05:54:13;10.48;;;6.38;;
35276;SDS011;21401;50.878;8.050;2022-10-31T05:56:38;12.73;;;6.45;;
35276;SDS011;21401;50.878;8.050;2022-10-31T05:59:04;14.75;;;6.78;;
35276;SDS011;21401;50.878;8.050;2022-10-31T06:01:30;12.95;;;6.82;;
35276;SDS011;21401;50.878;8.050;2022-10-31T06:03:58;22.70;;;7.75;;
35276;SDS011;21401;50.878;8.050;2022-10-31T06:06:24;19.90;;;7.63;;
35276;SDS011;21401;50.878;8.050;2022-10-31T06:08:49;11.93;;;6.03;;
35276;SDS011;21401;50.878;8.050;2022-10-31T06:11:15;32.35;;;6.70;;
35276;SDS011;21401;50.878;8.050;2022-10-31T06:13:41;18.70;;;7.35;;
35276;SDS011;21401;50.878;8.050;2022-10-31T06:16:07;25.90;;;7.80;;
35276;SDS011;21401;50.878;8.050;2022-10-31T06:18:34;15.48;;;7.25;;
35276;SDS011;21401;50.878;8.050;2022-10-31T06:21:00;11.85;;;6.78;;
35276;SDS011;21401;50.878;8.050;2022-10-31T06:23:25;14.40;;;8.18;;
35276;SDS011;21401;50.878;8.050;2022-10-31T06:25:59;13.52;;;7.20;;
35276;SDS011;21401;50.878;8.050;2022-10-31T06:28:25;19.60;;;6.78;;
35276;SDS011;21401;50.878;8.050;2022-10-31T06:30:50;21.10;;;7.00;;
35276;SDS011;21401;50.878;8.050;2022-10-31T06:33:16;16.40;;;8.05;;
35276;SDS011;21401;50.878;8.050;2022-10-31T06:35:47;14.48;;;6.78;;
35276;SDS011;21401;50.878;8.050;2022-10-31T06:38:13;16.27;;;7.32;;
35276;SDS011;21401;50.878;8.050;2022-10-31T06:40:39;19.60;;;7.82;;
35276;SDS011;21401;50.878;8.050;2022-10-31T06:43:05;18.48;;;7.95;;
35276;SDS011;21401;50.878;8.050;2022-10-31T06:45:30;24.33;;;8.25;;
35276;SDS011;21401;50.878;8.050;2022-10-31T06:47:56;21.20;;;8.15;;
35276;SDS011;21401;50.878;8.050;2022-10-31T06:50:22;21.23;;;7.78;;
35276;SDS011;21401;50.878;8.050;2022-10-31T06:52:52;15.57;;;6.65;;
35276;SDS011;21401;50.878;8.050;2022-10-31T06:55:22;19.50;;;8.60;;
35276;SDS011;21401;50.878;8.050;2022-10-31T06:57:52;23.05;;;10.02;;
35276;SDS011;21401;50.878;8.050;2022-10-31T07:00:22;18.10;;;10.52;;
35276;SDS011;21401;50.878;8.050;2022-10-31T07:02:52;16.60;;;7.75;;
35276;SDS011;21401;50.878;8.050;2022-10-31T07:05:22;20.13;;;9.20;;
35276;SDS011;21401;50.878;8.050;2022-10-31T07:07:51;19.90;;;7.45;;
35276;SDS011;21401;50.878;8.050;2022-10-31T07:10:18;13.68;;;6.60;;
35276;SDS011;21401;50.878;8.050;2022-10-31T07:12:44;15.13;;;6.53;;
35276;SDS011;21401;50.878;8.050;2022-10-31T07:15:10;15.15;;;6.90;;
35276;SDS011;21401;50.878;8.050;2022-10-31T07:17:39;19.42;;;7.70;;
35276;SDS011;21401;50.878;8.050;2022-10-31T07:20:08;25.73;;;8.05;;
35276;SDS011;21401;50.878;8.050;2022-10-31T07:22:34;18.05;;;7.65;;
35276;SDS011;21401;50.878;8.050;2022-10-31T07:25:03;18.15;;;7.38;;
35276;SDS011;21401;50.878;8.050;2022-10-31T07:27:38;13.32;;;6.43;;
35276;SDS011;21401;50.878;8.050;2022-10-31T07:30:06;17.45;;;7.63;;
35276;SDS011;21401;50.878;8.050;2022-10-31T07:32:42;22.02;;;6.82;;
35276;SDS011;21401;50.878;8.050;2022-10-31T07:35:18;18.33;;;8.88;;
35276;SDS011;21401;50.878;8.050;2022-10-31T07:37:45;18.83;;;7.03;;
35276;SDS011;21401;50.878;8.050;2022-10-31T07:40:10;16.55;;;6.75;;
35276;SDS011;21401;50.878;8.050;2022-10-31T07:42:40;14.85;;;6.68;;
35276;SDS011;21401;50.878;8.050;2022-10-31T07:45:08;15.50;;;7.32;;
35276;SDS011;21401;50.878;8.050;2022-10-31T07:47:41;22.63;;;7.30;;
35276;SDS011;21401;50.878;8.050;2022-10-31T07:50:09;17.85;;;8.10;;
35276;SDS011;21401;50.878;8.050;2022-10-31T07:52:37;13.65;;;6.93;;
35276;SDS011;21401;50.878;8.050;2022-10-31T07:55:03;20.00;;;7.38;;
35276;SDS011;21401;50.878;8.050;2022-10-31T07:57:33;18.70;;;7.88;;
35276;SDS011;21401;50.878;8.050;2022-10-31T07:59:59;16.48;;;6.70;;
35276;SDS011;21401;50.878;8.050;2022-10-31T08:02:25;19.08;;;8.20;;
35276;SDS011;21401;50.878;8.050;2022-10-31T08:04:51;25.10;;;7.35;;
35276;SDS011;21401;50.878;8.050;2022-10-31T08:07:16;18.23;;;7.40;;
35276;SDS011;21401;50.878;8.050;2022-10-31T08:09:42;22.00;;;8.07;;
35276;SDS011;21401;50.878;8.050;2022-10-31T08:12:11;17.45;;;7.43;;
35276;SDS011;21401;50.878;8.050;2022-10-31T08:14:36;17.23;;;7.00;;
35276;SDS011;21401;50.878;8.050;2022-10-31T08:17:04;18.83;;;7.53;;
35276;SDS011;21401;50.878;8.050;2022-10-31T08:19:30;30.80;;;7.47;;
35276;SDS011;21401;50.878;8.050;2022-10-31T08:22:02;15.02;;;6.28;;
35276;SDS011;21401;50.878;8.050;2022-10-31T08:24:28;13.02;;;6.40;;
35276;SDS011;21401;50.878;8.050;2022-10-31T08:27:03;22.05;;;7.53;;
35276;SDS011;21401;50.878;8.050;2022-10-31T08:33:04;19.67;;;6.50;;
35276;SDS011;21401;50.878;8.050;2022-10-31T08:35:30;20.52;;;6.25;;
35276;SDS011;21401;50.878;8.050;2022-10-31T08:37:57;23.50;;;7.45;;
35276;SDS011;21401;50.878;8.050;2022-10-31T08:40:27;16.40;;;6.88;;
35276;SDS011;21401;50.878;8.050;2022-10-31T08:43:00;22.23;;;8.63;;
35276;SDS011;21401;50.878;8.050;2022-10-31T08:45:28;23.40;;;7.47;;
35276;SDS011;21401;50.878;8.050;2022-10-31T08:47:58;20.85;;;7.75;;
35276;SDS011;21401;50.878;8.050;2022-10-31T08:50:25;17.60;;;7.93;;
35276;SDS011;21401;50.878;8.050;2022-10-31T08:52:51;18.00;;;6.88;;
35276;SDS011;21401;50.878;8.050;2022-10-31T08:55:24;14.02;;;6.85;;
35276;SDS011;21401;50.878;8.050;2022-10-31T08:57:54;13.85;;;7.53;;
35276;SDS011;21401;50.878;8.050;2022-10-31T09:00:22;21.30;;;6.30;;
35276;SDS011;21401;50.878;8.050;2022-10-31T09:02:55;14.80;;;6.70;;
35276;SDS011;21401;50.878;8.050;2022-10-31T09:05:25;21.67;;;7.57;;
35276;SDS011;21401;50.878;8.050;2022-10-31T09:07:52;19.60;;;7.28;;
35276;SDS011;21401;50.878;8.050;2022-10-31T09:10:21;19.05;;;7.25;;
35276;SDS011;21401;50.878;8.050;2022-10-31T09:12:47;12.25;;;7.00;;
35276;SDS011;21401;50.878;8.050;2022-10-31T09:15:19;19.60;;;7.68;;
35276;SDS011;21401;50.878;8.050;2022-10-31T09:17:48;12.43;;;6.15;;
35276;SDS011;21401;50.878;8.050;2022-10-31T09:20:17;18.88;;;8.23;;
35276;SDS011;21401;50.878;8.050;2022-10-31T09:22:43;23.85;;;7.90;;
35276;SDS011;21401;50.878;8.050;2022-10-31T09:25:08;21.15;;;7.40;;
35276;SDS011;21401;50.878;8.050;2022-10-31T09:27:34;21.73;;;7.10;;
35276;SDS011;21401;50.878;8.050;2022-10-31T09:30:03;23.42;;;7.35;;
35276;SDS011;21401;50.878;8.050;2022-10-31T09:32:29;17.58;;;7.10;;
35276;SDS011;21401;50.878;8.050;2022-10-31T09:34:55;18.30;;;7.00;;
35276;SDS011;21401;50.878;8.050;2022-10-31T09:37:23;17.70;;;6.75;;
35276;SDS011;21401;50.878;8.050;2022-10-31T09:39:49;16.73;;;7.72;;
35276;SDS011;21401;50.878;8.050;2022-10-31T09:48:06;21.70;;;7.13;;
35276;SDS011;21401;50.878;8.050;2022-10-31T09:53:26;21.25;;;8.48;;
35276;SDS011;21401;50.878;8.050;2022-10-31T09:56:14;19.67;;;7.85;;
35276;SDS011;21401;50.878;8.050;2022-10-31T09:58:44;18.10;;;8.95;;
35276;SDS011;21401;50.878;8.050;2022-10-31T10:01:41;23.35;;;8.82;;
35276;SDS011;21401;50.878;8.050;2022-10-31T10:04:20;21.65;;;8.55;;
35276;SDS011;21401;50.878;8.050;2022-10-31T10:06:57;21.67;;;9.30;;
35276;SDS011;21401;50.878;8.050;2022-10-31T10:09:26;17.73;;;9.18;;
35276;SDS011;21401;50.878;8.050;2022-10-31T10:15:19;19.35;;;9.38;;
35276;SDS011;21401;50.878;8.050;2022-10-31T10:24:33;24.92;;;10.77;;
35276;SDS011;21401;50.878;8.050;2022-10-31T10:30:07;19.05;;;10.32;;
35276;SDS011;21401;50.878;8.050;2022-10-31T10:32:51;21.23;;;10.20;;
35276;SDS011;21401;50.878;8.050;2022-10-31T10:37:46;23.75;;;10.93;;
35276;SDS011;21401;50.878;8.050;2022-10-31T10:40:16;25.25;;;10.43;;
35276;SDS011;21401;50.878;8.050;2022-10-31T10:42:50;18.45;;;10.85;;
35276;SDS011;21401;50.878;8.050;2022-10-31T10:46:05;27.08;;;11.95;;
35276;SDS011;21401;50.878;8.050;2022-10-31T10:49:04;17.67;;;6.78;;
35276;SDS011;21401;50.878;8.050;2022-10-31T10:58:03;19.25;;;8.70;;
35276;SDS011;21401;50.878;8.050;2022-10-31T11:00:42;25.70;;;9.38;;
35276;SDS011;21401;50.878;8.050;2022-10-31T11:03:16;25.80;;;9.82;;
35276;SDS011;21401;50.878;8.050;2022-10-31T11:08:27;20.20;;;9.65;;
35276;SDS011;21401;50.878;8.050;2022-10-31T11:11:27;16.17;;;8.95;;
35276;SDS011;21401;50.878;8.050;2022-10-31T11:13:50;23.00;;;7.90;;
35276;SDS011;21401;50.878;8.050;2022-10-31T11:19:07;15.82;;;8.68;;
35276;SDS011;21401;50.878;8.050;2022-10-31T11:21:41;20.00;;;8.18;;
35276;SDS011;21401;50.878;8.050;2022-10-31T11:26:35;14.05;;;6.72;;
35276;SDS011;21401;50.878;8.050;2022-10-31T11:29:03;13.38;;;5.30;;
35276;SDS011;21401;50.878;8.050;2022-10-31T11:31:30;21.00;;;4.63;;
35276;SDS011;21401;50.878;8.050;2022-10-31T11:34:16;15.23;;;4.50;;
35276;SDS011;21401;50.878;8.050;2022-10-31T11:37:17;13.85;;;4.28;;
35276;SDS011;21401;50.878;8.050;2022-10-31T11:39:53;12.05;;;4.53;;
35276;SDS011;21401;50.878;8.050;2022-10-31T11:42:40;15.63;;;5.10;;
35276;SDS011;21401;50.878;8.050;2022-10-31T11:45:17;12.70;;;4.55;;
35276;SDS011;21401;50.878;8.050;2022-10-31T11:47:49;16.35;;;4.32;;
35276;SDS011;21401;50.878;8.050;2022-10-31T11:50:22;15.32;;;5.90;;
35276;SDS011;21401;50.878;8.050;2022-10-31T11:52:57;15.43;;;4.47;;
35276;SDS011;21401;50.878;8.050;2022-10-31T11:55:31;9.45;;;3.97;;
35276;SDS011;21401;50.878;8.050;2022-10-31T11:57:59;10.50;;;4.10;;
35276;SDS011;21401;50.878;8.050;2022-10-31T12:00:36;15.90;;;4.65;;
35276;SDS011;21401;50.878;8.050;2022-10-31T12:03:04;11.15;;;4.45;;
35276;SDS011;21401;50.878;8.050;2022-10-31T12:05:36;11.23;;;3.58;;
35276;SDS011;21401;50.878;8.050;2022-10-31T12:08:09;13.77;;;4.20;;
35276;SDS011;21401;50.878;8.050;2022-10-31T12:11:01;14.30;;;4.22;;
35276;SDS011;21401;50.878;8.050;2022-10-31T12:13:33;17.17;;;4.32;;
35276;SDS011;21401;50.878;8.050;2022-10-31T12:24:35;16.33;;;4.28;;
35276;SDS011;21401;50.878;8.050;2022-10-31T12:30:23;12.63;;;3.58;;
35276;SDS011;21401;50.878;8.050;2022-10-31T12:51:05;17.20;;;4.07;;
35276;SDS011;21401;50.878;8.050;2022-10-31T13:07:36;10.88;;;3.90;;
35276;SDS011;21401;50.878;8.050;2022-10-31T13:12:35;16.58;;;4.22;;
35276;SDS011;21401;50.878;8.050;2022-10-31T13:15:21;13.00;;;3.88;;
35276;SDS011;21401;50.878;8.050;2022-10-31T13:17:53;17.92;;;3.85;;
35276;SDS011;21401;50.878;8.050;2022-10-31T13:23:14;20.70;;;4.28;;
35276;SDS011;21401;50.878;8.050;2022-10-31T13:25:50;9.67;;;3.57;;
35276;SDS011;21401;50.878;8.050;2022-10-31T13:31:00;14.43;;;4.25;;
35276;SDS011;21401;50.878;8.050;2022-10-31T13:33:30;13.88;;;3.40;;
35276;SDS011;21401;50.878;8.050;2022-10-31T13:36:06;9.57;;;3.67;;
35276;SDS011;21401;50.878;8.050;2022-10-31T13:38:51;11.75;;;2.88;;
35276;SDS011;21401;50.878;8.050;2022-10-31T13:44:39;7.10;;;4.00;;
35276;SDS011;21401;50.878;8.050;2022-10-31T13:47:20;10.88;;;3.70;;
35276;SDS011;21401;50.878;8.050;2022-10-31T13:50:18;11.20;;;3.80;;
35276;SDS011;21401;50.878;8.050;2022-10-31T13:52:46;11.63;;;4.00;;
35276;SDS011;21401;50.878;8.050;2022-10-31T13:58:21;15.63;;;4.13;;
35276;SDS011;21401;50.878;8.050;2022-10-31T14:03:40;21.95;;;4.68;;
35276;SDS011;21401;50.878;8.050;2022-10-31T14:06:14;14.32;;;4.50;;
35276;SDS011;21401;50.878;8.050;2022-10-31T14:08:48;14.82;;;3.97;;
35276;SDS011;21401;50.878;8.050;2022-10-31T14:11:23;11.00;;;3.33;;
35276;SDS011;21401;50.878;8.050;2022-10-31T14:13:58;15.70;;;4.93;;
35276;SDS011;21401;50.878;8.050;2022-10-31T14:16:29;10.27;;;4.78;;
35276;SDS011;21401;50.878;8.050;2022-10-31T14:19:07;21.83;;;4.97;;
35276;SDS011;21401;50.878;8.050;2022-10-31T14:21:48;13.73;;;4.18;;
35276;SDS011;21401;50.878;8.050;2022-10-31T14:26:56;11.70;;;4.22;;
35276;SDS011;21401;50.878;8.050;2022-10-31T14:29:46;11.90;;;3.90;;
35276;SDS011;21401;50.878;8.050;2022-10-31T14:32:41;11.07;;;4.45;;
35276;SDS011;21401;50.878;8.050;2022-10-31T14:41:40;18.85;;;4.03;;
35276;SDS011;21401;50.878;8.050;2022-10-31T14:53:16;17.08;;;4.38;;
35276;SDS011;21401;50.878;8.050;2022-10-31T14:55:49;15.30;;;4.45;;
35276;SDS011;21401;50.878;8.050;2022-10-31T14:58:22;13.90;;;4.15;;
35276;SDS011;21401;50.878;8.050;2022-10-31T15:00:58;14.25;;;4.20;;
35276;SDS011;21401;50.878;8.050;2022-10-31T15:03:29;10.02;;;3.90;;
35276;SDS011;21401;50.878;8.050;2022-10-31T15:06:11;15.73;;;4.90;;
35276;SDS011;21401;50.878;8.050;2022-10-31T15:09:01;17.50;;;4.22;;
35276;SDS011;21401;50.878;8.050;2022-10-31T15:11:28;15.63;;;4.32;;
35276;SDS011;21401;50.878;8.050;2022-10-31T15:14:25;9.63;;;3.70;;
35276;SDS011;21401;50.878;8.050;2022-10-31T15:16:54;12.50;;;4.32;;
35276;SDS011;21401;50.878;8.050;2022-10-31T15:19:32;13.35;;;4.22;;
35276;SDS011;21401;50.878;8.050;2022-10-31T15:21:59;13.68;;;3.67;;
35276;SDS011;21401;50.878;8.050;2022-10-31T15:24:30;12.43;;;3.53;;
35276;SDS011;21401;50.878;8.050;2022-10-31T15:27:00;9.10;;;3.72;;
35276;SDS011;21401;50.878;8.050;2022-10-31T15:29:32;12.52;;;4.03;;
35276;SDS011;21401;50.878;8.050;2022-10-31T15:34:46;15.75;;;4.10;;
35276;SDS011;21401;50.878;8.050;2022-10-31T15:37:12;12.90;;;3.92;;
35276;SDS011;21401;50.878;8.050;2022-10-31T15:39:42;16.20;;;4.10;;
35276;SDS011;21401;50.878;8.050;2022-10-31T15:42:21;9.98;;;3.60;;
35276;SDS011;21401;50.878;8.050;2022-10-31T15:45:12;15.15;;;5.22;;
35276;SDS011;21401;50.878;8.050;2022-10-31T15:47:48;10.55;;;4.38;;
35276;SDS011;21401;50.878;8.050;2022-10-31T15:50:37;17.70;;;4.57;;
35276;SDS011;21401;50.878;8.050;2022-10-31T15:53:06;10.65;;;4.07;;
35276;SDS011;21401;50.878;8.050;2022-10-31T15:56:08;7.07;;;3.63;;
35276;SDS011;21401;50.878;8.050;2022-10-31T15:58:39;15.57;;;4.40;;
35276;SDS011;21401;50.878;8.050;2022-10-31T16:01:19;12.65;;;4.97;;
35276;SDS011;21401;50.878;8.050;2022-10-31T16:06:34;14.23;;;4.40;;
35276;SDS011;21401;50.878;8.050;2022-10-31T16:09:22;18.90;;;5.45;;
35276;SDS011;21401;50.878;8.050;2022-10-31T16:11:48;15.75;;;4.80;;
35276;SDS011;21401;50.878;8.050;2022-10-31T16:14:15;11.07;;;4.65;;
35276;SDS011;21401;50.878;8.050;2022-10-31T16:16:45;21.10;;;4.95;;
35276;SDS011;21401;50.878;8.050;2022-10-31T16:19:36;15.38;;;4.82;;
35276;SDS011;21401;50.878;8.050;2022-10-31T16:22:21;16.77;;;4.57;;
35276;SDS011;21401;50.878;8.050;2022-10-31T16:25:01;12.20;;;4.45;;
35276;SDS011;21401;50.878;8.050;2022-10-31T16:27:33;13.15;;;4.53;;
35276;SDS011;21401;50.878;8.050;2022-10-31T16:30:01;15.73;;;4.72;;
35276;SDS011;21401;50.878;8.050;2022-10-31T16:32:32;11.38;;;4.25;;
35276;SDS011;21401;50.878;8.050;2022-10-31T16:37:40;13.10;;;5.68;;
35276;SDS011;21401;50.878;8.050;2022-10-31T16:40:08;9.43;;;3.38;;
35276;SDS011;21401;50.878;8.050;2022-10-31T16:42:41;13.77;;;4.07;;
35276;SDS011;21401;50.878;8.050;2022-10-31T16:45:18;18.27;;;4.60;;
35276;SDS011;21401;50.878;8.050;2022-10-31T16:47:48;14.93;;;4.80;;
35276;SDS011;21401;50.878;8.050;2022-10-31T16:50:16;12.82;;;4.45;;
35276;SDS011;21401;50.878;8.050;2022-10-31T16:52:47;13.77;;;5.00;;
35276;SDS011;21401;50.878;8.050;2022-10-31T16:55:16;17.02;;;5.78;;
35276;SDS011;21401;50.878;8.050;2022-10-31T16:57:48;30.55;;;12.73;;
35276;SDS011;21401;50.878;8.050;2022-10-31T17:00:20;17.83;;;6.82;;
35276;SDS011;21401;50.878;8.050;2022-10-31T17:03:02;21.10;;;7.10;;
35276;SDS011;21401;50.878;8.050;2022-10-31T17:05:29;16.45;;;5.40;;
35276;SDS011;21401;50.878;8.050;2022-10-31T17:08:00;19.23;;;5.63;;
35276;SDS011;21401;50.878;8.050;2022-10-31T17:12:56;26.95;;;7.22;;
35276;SDS011;21401;50.878;8.050;2022-10-31T17:15:25;12.10;;;6.07;;
35276;SDS011;21401;50.878;8.050;2022-10-31T17:17:52;13.70;;;5.68;;
35276;SDS011;21401;50.878;8.050;2022-10-31T17:20:25;13.23;;;5.22;;
35276;SDS011;21401;50.878;8.050;2022-10-31T17:22:55;13.68;;;5.70;;
35276;SDS011;21401;50.878;8.050;2022-10-31T17:25:24;15.25;;;6.43;;
35276;SDS011;21401;50.878;8.050;2022-10-31T17:27:54;16.30;;;6.55;;
35276;SDS011;21401;50.878;8.050;2022-10-31T17:30:26;18.30;;;7.15;;
35276;SDS011;21401;50.878;8.050;2022-10-31T17:32:57;13.23;;;6.22;;
35276;SDS011;21401;50.878;8.050;2022-10-31T17:35:23;14.07;;;6.03;;
35276;SDS011;21401;50.878;8.050;2022-10-31T17:37:50;12.50;;;6.45;;
35276;SDS011;21401;50.878;8.050;2022-10-31T17:40:18;13.63;;;5.85;;